createdAt,value
2019-05-14T07:07:09.914Z,8.00
2019-05-14T07:09:39.335Z,6.93
2019-05-14T07:12:09.982Z,6.20
2019-05-14T07:14:39.447Z,7.47
2019-05-14T07:17:09.275Z,5.63
2019-05-14T07:19:40.441Z,7.53
2019-05-14T07:22:10.923Z,8.47
2019-05-14T07:24:40.720Z,7.57
2019-05-14T07:27:10.337Z,8.87
2019-05-14T07:29:39.714Z,9.30
2019-05-14T07:32:09.321Z,9.30
2019-05-14T07:34:39.085Z,10.23
2019-05-14T07:37:09.394Z,10.90
2019-05-14T07:39:40.274Z,6.77
2019-05-14T07:42:10.109Z,5.80
2019-05-14T07:44:39.592Z,7.30
2019-05-14T07:47:10.128Z,8.67
2019-05-14T07:49:40.672Z,8.73
2019-05-14T07:52:10.080Z,10.33
2019-05-14T07:54:39.420Z,8.03
2019-05-14T07:57:09.032Z,6.90
2019-05-14T07:59:39.587Z,7.53
2019-05-14T08:02:09.480Z,7.60
2019-05-14T08:04:38.942Z,7.07
2019-05-14T08:07:08.899Z,6.27
2019-05-14T08:09:40.120Z,7.53
2019-05-14T08:12:12.744Z,5.30
2019-05-14T08:14:57.221Z,6.20
2019-05-14T08:17:13.611Z,7.00
2019-05-14T08:19:43.072Z,7.40
2019-05-14T08:22:13.629Z,5.33
2019-05-14T08:24:42.971Z,6.97
2019-05-14T08:27:12.652Z,5.30
2019-05-14T08:29:42.324Z,6.60
2019-05-14T08:32:11.720Z,6.93
2019-05-14T08:34:41.096Z,6.90
2019-05-14T08:37:10.455Z,6.27
2019-05-14T08:39:39.870Z,6.03
2019-05-14T08:42:09.256Z,5.10
2019-05-14T08:44:39.895Z,5.33
2019-05-14T08:47:09.759Z,5.93
2019-05-14T08:49:46.120Z,6.83
2019-05-14T08:52:10.401Z,5.77
2019-05-14T08:54:41.038Z,5.77
2019-05-14T08:57:10.521Z,8.43
2019-05-14T08:59:41.283Z,5.50
2019-05-14T09:02:11.022Z,6.50
2019-05-14T09:04:43.126Z,9.50
2019-05-14T09:07:12.823Z,6.17
2019-05-14T09:09:42.596Z,6.33
2019-05-14T09:12:13.707Z,5.30
2019-05-14T09:14:43.172Z,8.40
2019-05-14T09:17:14.762Z,9.80
2019-05-14T09:19:57.595Z,9.90
2019-05-14T09:22:18.264Z,9.00
2019-05-14T09:24:49.078Z,6.90
2019-05-14T09:27:19.268Z,7.87
2019-05-14T09:29:48.876Z,7.73
2019-05-14T09:33:18.710Z,8.67
2019-05-14T09:34:49.704Z,10.10
2019-05-14T09:37:19.510Z,7.60
2019-05-14T09:39:49.010Z,9.33
2019-05-14T09:42:19.514Z,8.53
2019-05-14T09:44:49.492Z,7.90
2019-05-14T09:47:19.157Z,7.60
2019-05-14T09:49:49.289Z,8.10
2019-05-14T09:52:18.888Z,12.47
2019-05-14T09:54:49.562Z,9.07
2019-05-14T09:57:19.342Z,8.03
2019-05-14T09:59:48.754Z,9.33
2019-05-14T10:02:19.217Z,10.00
2019-05-14T10:04:49.993Z,9.27
2019-05-14T10:07:19.443Z,8.40
2019-05-14T10:09:49.508Z,7.80
2019-05-14T10:12:18.996Z,8.33
2019-05-14T10:14:48.798Z,7.93
2019-05-14T10:17:19.596Z,10.23
2019-05-14T10:19:50.003Z,11.40
2019-05-14T10:22:19.901Z,10.23
2019-05-14T10:24:49.488Z,12.17
2019-05-14T10:27:19.297Z,8.80
2019-05-14T10:29:48.725Z,6.77
2019-05-14T10:32:18.802Z,9.03
2019-05-14T10:34:48.638Z,9.63
2019-05-14T10:37:19.153Z,9.43
2019-05-14T10:39:48.865Z,7.80
2019-05-14T10:42:20.104Z,6.40
2019-05-14T10:44:49.421Z,12.77
2019-05-14T10:47:18.958Z,8.37
2019-05-14T10:49:49.567Z,8.83
2019-05-14T10:52:19.792Z,11.17
2019-05-14T10:54:55.964Z,10.50
2019-05-14T10:57:20.622Z,7.70
2019-05-14T10:59:50.071Z,5.50
2019-05-14T11:02:19.472Z,7.17
2019-05-14T11:04:48.841Z,8.47
2019-05-14T11:07:18.697Z,7.63
2019-05-14T11:09:48.775Z,6.23
2019-05-14T11:12:29.773Z,10.37
2019-05-14T11:14:59.354Z,10.80
2019-05-14T11:17:29.244Z,8.97
2019-05-14T11:19:59.901Z,7.23
2019-05-14T11:22:29.252Z,7.47
2019-05-14T11:24:59.794Z,6.53
2019-05-14T11:27:29.338Z,6.67
2019-05-14T11:29:58.852Z,7.43
2019-05-14T11:32:29.103Z,8.07
2019-05-14T11:34:59.256Z,6.23
2019-05-14T11:37:28.739Z,6.40
2019-05-14T11:39:58.202Z,8.33
2019-05-14T11:42:31.540Z,7.23
2019-05-14T11:45:00.261Z,8.57
2019-05-14T11:47:29.639Z,6.90
2019-05-14T11:49:59.282Z,7.90
2019-05-14T11:52:28.835Z,5.90
2019-05-14T11:54:58.600Z,6.80
2019-05-14T11:57:28.181Z,8.37
2019-05-14T11:59:58.142Z,6.60
2019-05-14T12:02:29.024Z,6.17
2019-05-14T12:04:58.641Z,7.30
2019-05-14T12:07:28.154Z,5.83
2019-05-14T12:09:57.693Z,5.07
2019-05-14T12:12:28.827Z,6.13
2019-05-14T12:14:58.968Z,4.63
2019-05-14T12:17:29.494Z,4.13
2019-05-14T12:19:59.476Z,5.73
2019-05-14T12:22:28.915Z,5.53
2019-05-14T12:24:58.514Z,5.73
2019-05-14T12:27:27.942Z,5.77
2019-05-14T12:29:59.882Z,5.30
2019-05-14T12:32:29.528Z,5.17
2019-05-14T12:34:59.417Z,3.70
2019-05-14T12:37:29.018Z,5.83
2019-05-14T12:39:59.170Z,5.17
2019-05-14T12:42:29.613Z,5.43
2019-05-14T12:44:59.132Z,6.07
2019-05-14T12:47:29.067Z,5.10
2019-05-14T12:49:58.751Z,8.27
2019-05-14T12:52:29.684Z,6.53
2019-05-14T12:54:59.805Z,5.00
2019-05-14T12:57:30.040Z,5.33
2019-05-14T12:59:59.543Z,4.33
2019-05-14T13:02:29.738Z,6.07
2019-05-14T13:05:00.513Z,7.87
2019-05-14T13:07:29.948Z,3.73
2019-05-14T13:09:59.403Z,4.73
2019-05-14T13:12:29.691Z,4.97
2019-05-14T13:15:00.141Z,3.93
2019-05-14T13:17:30.806Z,3.70
2019-05-14T13:20:01.249Z,4.53
2019-05-14T13:22:42.449Z,5.47
2019-05-14T13:25:02.571Z,6.87
2019-05-14T13:27:31.982Z,5.00
2019-05-14T13:30:01.416Z,3.93
2019-05-14T13:32:30.787Z,4.43
2019-05-14T13:35:00.172Z,4.43
2019-05-14T13:37:29.657Z,3.47
2019-05-14T13:39:59.268Z,4.07
2019-05-14T13:42:29.563Z,3.97
2019-05-14T13:44:59.588Z,3.73
2019-05-14T13:47:29.017Z,4.07
2019-05-14T13:49:59.561Z,3.13
2019-05-14T13:52:30.378Z,5.17
2019-05-14T13:54:59.804Z,4.37
2019-05-14T13:57:29.261Z,3.60
2019-05-14T13:59:59.027Z,4.00
2019-05-14T14:02:31.253Z,5.27
2019-05-14T14:05:01.701Z,3.23
2019-05-14T14:07:31.158Z,3.50
2019-05-14T14:10:00.559Z,4.77
2019-05-14T14:12:32.510Z,3.53
2019-05-14T14:15:01.694Z,4.93
2019-05-14T14:17:31.131Z,4.03
2019-05-14T14:20:00.559Z,4.73
2019-05-14T14:22:29.938Z,4.03
2019-05-14T14:24:59.383Z,3.57
2019-05-14T14:27:29.899Z,3.20
2019-05-14T14:29:59.655Z,3.73
2019-05-14T14:32:29.086Z,3.30
2019-05-14T14:34:59.139Z,3.20
2019-05-14T14:37:28.765Z,4.93
2019-05-14T14:39:59.307Z,3.50
2019-05-14T14:42:29.740Z,3.10
2019-05-14T14:44:59.855Z,4.00
2019-05-14T14:47:29.403Z,3.83
2019-05-14T14:50:00.340Z,4.13
2019-05-14T14:52:29.881Z,2.70
2019-05-14T14:54:59.240Z,3.30
2019-05-14T14:57:30.364Z,3.67
2019-05-14T14:59:59.788Z,2.87
2019-05-14T15:02:29.208Z,3.70
2019-05-14T15:04:59.566Z,2.73
2019-05-14T15:07:30.075Z,4.10
2019-05-14T15:09:59.826Z,4.23
2019-05-14T15:12:29.384Z,3.37
2019-05-14T15:14:59.485Z,3.40
2019-05-14T15:17:29.678Z,3.20
2019-05-14T15:19:59.718Z,3.87
2019-05-14T15:22:30.938Z,3.60
2019-05-14T15:25:00.274Z,3.10
2019-05-14T15:27:29.780Z,3.27
2019-05-14T15:29:59.452Z,3.67
2019-05-14T15:32:30.311Z,3.60
2019-05-14T15:35:00.176Z,3.30
2019-05-14T15:37:31.693Z,3.50
2019-05-14T15:40:04.145Z,2.70
2019-05-14T15:42:33.483Z,4.00
2019-05-14T15:45:23.296Z,3.63
